createdAt,value
2022-11-11T00:00:51.408Z,67.33
2022-11-11T00:03:36.710Z,67.34
2022-11-11T00:06:21.960Z,67.70
2022-11-11T00:09:07.273Z,68.23
2022-11-11T00:11:52.526Z,68.58
2022-11-11T00:14:37.833Z,68.70
2022-11-11T00:17:41.673Z,68.88
2022-11-11T00:20:45.732Z,69.37
2022-11-11T00:23:49.981Z,69.07
2022-11-11T00:26:40.384Z,69.00
2022-11-11T00:29:26.116Z,68.90
2022-11-11T00:32:23.383Z,68.41
2022-11-11T00:35:28.019Z,68.66
2022-11-11T00:38:34.565Z,69.31
2022-11-11T00:41:20.699Z,69.49
2022-11-11T00:44:05.825Z,69.66
2022-11-11T00:47:09.756Z,69.30
2022-11-11T00:50:13.892Z,69.30
2022-11-11T00:52:59.181Z,69.45
2022-11-11T00:55:44.459Z,69.50
2022-11-11T00:58:29.855Z,69.33
2022-11-11T01:01:15.521Z,69.21
2022-11-11T01:04:00.992Z,68.97
2022-11-11T01:06:46.152Z,69.09
2022-11-11T01:09:31.914Z,69.18
2022-11-11T01:12:17.271Z,69.41
2022-11-11T01:15:02.670Z,69.88
2022-11-11T01:17:48.018Z,70.16
2022-11-11T01:20:33.325Z,70.36
2022-11-11T01:23:19.060Z,70.65
2022-11-11T01:26:13.984Z,70.45
2022-11-11T01:28:59.518Z,70.79
2022-11-11T01:31:45.065Z,70.71
2022-11-11T01:34:30.575Z,70.71
2022-11-11T01:37:15.757Z,70.55
2022-11-11T01:40:01.192Z,70.44
2022-11-11T01:42:51.027Z,70.29
2022-11-11T01:45:58.127Z,70.32
2022-11-11T01:49:14.729Z,70.32
2022-11-11T01:52:03.082Z,70.70
2022-11-11T01:55:09.815Z,70.53
2022-11-11T01:58:02.710Z,70.75
2022-11-11T02:00:48.010Z,70.63
2022-11-11T02:03:36.274Z,70.35
2022-11-11T02:06:22.168Z,70.11
2022-11-11T02:09:08.311Z,69.86
2022-11-11T02:12:13.117Z,69.91
2022-11-11T02:15:00.415Z,69.76
2022-11-11T02:17:47.097Z,69.69
2022-11-11T02:20:36.618Z,69.63
2022-11-11T02:23:35.969Z,69.31
2022-11-11T02:26:22.587Z,69.24
2022-11-11T02:29:15.201Z,69.13
2022-11-11T02:32:00.838Z,68.81
2022-11-11T02:34:46.714Z,68.91
2022-11-11T02:37:32.261Z,69.09
2022-11-11T02:40:31.245Z,69.09
2022-11-11T02:43:18.820Z,69.14
2022-11-11T02:46:06.405Z,69.22
2022-11-11T02:48:51.887Z,69.07
2022-11-11T02:51:37.177Z,69.25
2022-11-11T02:54:22.855Z,69.25
2022-11-11T02:57:08.437Z,69.61
2022-11-11T02:59:54.620Z,69.66
2022-11-11T03:02:40.005Z,69.83
2022-11-11T03:05:25.762Z,69.65
2022-11-11T03:08:11.195Z,69.73
2022-11-11T03:10:56.406Z,69.62
2022-11-11T03:13:41.588Z,69.94
2022-11-11T03:16:46.033Z,69.71
2022-11-11T03:19:31.058Z,70.10
2022-11-11T03:25:40.149Z,70.09
2022-11-11T03:28:25.939Z,71.05
2022-11-11T03:31:11.379Z,71.23
2022-11-11T03:33:56.589Z,70.82
2022-11-11T03:37:00.701Z,71.10
2022-11-11T03:39:46.260Z,71.21
2022-11-11T03:42:31.569Z,71.06
2022-11-11T03:45:16.939Z,71.13
2022-11-11T03:48:02.374Z,71.30
2022-11-11T03:50:48.561Z,71.06
2022-11-11T03:53:34.131Z,70.71
2022-11-11T03:56:19.377Z,70.44
2022-11-11T03:59:04.680Z,70.86
2022-11-11T04:02:08.743Z,70.82
2022-11-11T04:05:12.884Z,71.40
2022-11-11T04:08:17.034Z,71.41
2022-11-11T04:11:07.668Z,71.32
2022-11-11T04:14:12.773Z,70.94
2022-11-11T04:16:58.329Z,71.15
2022-11-11T04:20:01.916Z,70.95
2022-11-11T04:22:48.641Z,71.14
2022-11-11T04:25:49.178Z,71.46
2022-11-11T04:28:53.318Z,71.54
2022-11-11T04:31:58.363Z,71.62
2022-11-11T04:34:46.084Z,71.59
2022-11-11T04:37:33.189Z,71.19
2022-11-11T04:40:37.507Z,71.26
2022-11-11T04:43:22.772Z,71.14
2022-11-11T04:46:08.359Z,71.10
2022-11-11T04:48:53.499Z,70.78
2022-11-11T04:51:57.440Z,70.70
2022-11-11T04:55:01.607Z,70.75
2022-11-11T04:57:48.243Z,70.87
2022-11-11T05:00:34.276Z,70.78
2022-11-11T05:03:22.189Z,70.85
2022-11-11T05:06:26.465Z,70.61
2022-11-11T05:09:11.930Z,71.04
2022-11-11T05:11:57.156Z,70.75
2022-11-11T05:15:00.992Z,70.82
2022-11-11T05:18:18.413Z,70.67
2022-11-11T05:21:22.263Z,70.86
2022-11-11T05:24:26.446Z,70.46
2022-11-11T05:27:12.013Z,70.53
2022-11-11T05:29:57.517Z,70.33
2022-11-11T05:32:43.271Z,70.01
2022-11-11T05:35:30.010Z,70.13
2022-11-11T05:38:21.219Z,70.02
2022-11-11T05:41:08.078Z,70.25
2022-11-11T05:43:53.207Z,70.26
2022-11-11T05:46:38.652Z,70.17
2022-11-11T05:49:25.262Z,69.72
2022-11-11T05:52:16.572Z,69.62
2022-11-11T05:55:01.954Z,69.98
2022-11-11T05:57:47.193Z,69.88
2022-11-11T06:00:32.331Z,70.02
2022-11-11T06:03:17.658Z,69.75
2022-11-11T06:06:03.201Z,69.88
2022-11-11T06:08:50.259Z,69.82
2022-11-11T06:11:35.812Z,70.02
2022-11-11T06:14:21.597Z,69.78
2022-11-11T06:17:07.080Z,70.01
2022-11-11T06:19:53.629Z,69.89
2022-11-11T06:22:57.171Z,69.89
2022-11-11T06:26:01.392Z,69.70
2022-11-11T06:28:52.103Z,70.07
2022-11-11T06:31:37.636Z,70.30
2022-11-11T06:34:22.878Z,70.29
2022-11-11T06:37:08.458Z,70.05
2022-11-11T06:39:53.681Z,69.76
2022-11-11T06:42:38.945Z,69.85
2022-11-11T06:45:25.137Z,69.87
2022-11-11T06:48:12.465Z,69.89
2022-11-11T06:51:03.782Z,69.87
2022-11-11T06:53:49.754Z,70.41
2022-11-11T06:56:35.282Z,70.24
2022-11-11T06:59:20.577Z,70.44
2022-11-11T07:02:05.686Z,70.42
2022-11-11T07:04:50.851Z,70.00
2022-11-11T07:07:36.255Z,69.87
2022-11-11T07:10:21.702Z,69.97
2022-11-11T07:13:07.760Z,69.92
2022-11-11T07:15:53.380Z,70.04
2022-11-11T07:18:38.501Z,69.86
2022-11-11T07:21:23.908Z,69.95
2022-11-11T07:24:09.210Z,69.90
2022-11-11T07:26:54.547Z,70.07
2022-11-11T07:29:39.871Z,69.65
2022-11-11T07:32:25.318Z,69.44
2022-11-11T07:35:10.540Z,69.43
2022-11-11T07:37:55.844Z,69.39
2022-11-11T07:40:41.231Z,69.32
2022-11-11T07:43:26.681Z,69.59
2022-11-11T07:46:11.982Z,69.71
2022-11-11T07:48:57.544Z,69.24
2022-11-11T07:51:42.726Z,69.31
2022-11-11T07:54:27.940Z,69.24
2022-11-11T07:57:13.224Z,68.94
2022-11-11T07:59:58.570Z,69.00
2022-11-11T08:02:48.403Z,69.17
2022-11-11T08:05:33.576Z,68.71
2022-11-11T08:08:20.920Z,69.27
2022-11-11T08:11:06.599Z,68.93
2022-11-11T08:13:52.289Z,68.88
2022-11-11T08:16:37.686Z,68.32
2022-11-11T08:19:23.001Z,68.36
2022-11-11T08:22:08.348Z,68.13
2022-11-11T08:25:03.511Z,68.15
2022-11-11T08:27:50.018Z,68.08
2022-11-11T08:30:35.670Z,67.12
2022-11-11T08:33:36.259Z,67.79
2022-11-11T08:36:23.753Z,67.37
2022-11-11T08:39:09.414Z,67.28
2022-11-11T08:41:54.733Z,67.52
2022-11-11T08:44:40.106Z,67.34
2022-11-11T08:47:25.413Z,67.27
2022-11-11T08:50:11.269Z,66.85
2022-11-11T08:52:57.232Z,66.89
2022-11-11T08:55:42.513Z,66.61
2022-11-11T08:58:27.841Z,66.74
2022-11-11T09:01:14.040Z,66.64
2022-11-11T09:04:06.834Z,66.42
2022-11-11T09:07:02.311Z,66.48
2022-11-11T09:09:47.549Z,66.38
2022-11-11T09:12:33.260Z,66.17
2022-11-11T09:15:18.509Z,65.60
2022-11-11T09:18:03.984Z,65.16
2022-11-11T09:20:49.182Z,65.16
2022-11-11T09:23:34.533Z,64.37
2022-11-11T09:26:19.988Z,64.71
2022-11-11T09:29:05.323Z,65.02
2022-11-11T09:31:50.764Z,65.29
2022-11-11T09:34:36.166Z,65.54
2022-11-11T09:37:22.226Z,65.41
2022-11-11T09:40:16.689Z,64.88
2022-11-11T09:43:14.152Z,65.23
2022-11-11T09:46:17.449Z,65.34
2022-11-11T09:49:21.195Z,65.24
2022-11-11T09:52:32.499Z,64.68
2022-11-11T09:55:22.616Z,64.44
2022-11-11T09:58:19.978Z,64.75
2022-11-11T10:01:12.731Z,64.58
2022-11-11T10:04:09.040Z,64.58
2022-11-11T10:06:59.442Z,64.57
2022-11-11T10:09:52.519Z,63.91
2022-11-11T10:12:43.859Z,63.56
2022-11-11T10:15:36.254Z,63.58
2022-11-11T10:18:39.731Z,63.47
2022-11-11T10:22:05.744Z,62.92
2022-11-11T10:24:51.226Z,62.47
2022-11-11T10:27:37.326Z,62.57
2022-11-11T10:30:33.542Z,62.50
2022-11-11T10:33:56.397Z,62.30
2022-11-11T10:36:48.443Z,62.15
2022-11-11T10:39:48.573Z,61.87
2022-11-11T10:42:33.905Z,62.35
2022-11-11T10:45:54.543Z,61.88
2022-11-11T10:48:56.187Z,61.29
2022-11-11T10:51:50.155Z,61.49
2022-11-11T10:54:44.411Z,61.33
2022-11-11T10:57:37.520Z,60.88
2022-11-11T11:00:22.972Z,60.72
2022-11-11T11:03:24.112Z,60.33
2022-11-11T11:06:17.037Z,61.08
2022-11-11T11:09:12.341Z,61.64
2022-11-11T11:12:07.313Z,61.42
2022-11-11T11:14:55.428Z,61.29
2022-11-11T11:17:55.269Z,61.33
2022-11-11T11:21:01.266Z,60.69
2022-11-11T11:23:47.218Z,60.00
2022-11-11T11:26:47.467Z,59.87
2022-11-11T11:29:38.813Z,60.23
2022-11-11T11:32:28.834Z,59.95
2022-11-11T11:35:31.190Z,59.92
2022-11-11T11:38:16.642Z,59.67
2022-11-11T11:41:01.920Z,60.07
2022-11-11T11:43:49.766Z,59.62
2022-11-11T11:46:39.753Z,60.41
2022-11-11T11:49:40.532Z,60.09
2022-11-11T11:52:47.902Z,60.05
2022-11-11T11:55:37.802Z,60.12
2022-11-11T11:58:42.430Z,59.72
2022-11-11T12:02:06.539Z,59.55
2022-11-11T12:05:00.669Z,59.90
2022-11-11T12:08:27.810Z,60.02
2022-11-11T12:11:21.675Z,59.78
2022-11-11T12:14:24.958Z,59.81
2022-11-11T12:17:19.636Z,59.80
2022-11-11T12:20:16.874Z,59.30
2022-11-11T12:23:23.489Z,59.16
2022-11-11T12:26:37.729Z,59.29
2022-11-11T12:29:35.388Z,59.31
2022-11-11T12:33:05.118Z,59.00
2022-11-11T12:35:56.311Z,59.02
2022-11-11T12:38:58.923Z,58.53
2022-11-11T12:42:21.925Z,58.21
2022-11-11T12:45:13.555Z,58.37
2022-11-11T12:48:31.197Z,58.13
2022-11-11T12:51:34.939Z,58.23
2022-11-11T12:54:42.319Z,58.16
2022-11-11T12:57:42.613Z,58.10
2022-11-11T13:00:28.102Z,57.91
2022-11-11T13:03:28.702Z,58.39
2022-11-11T13:06:39.138Z,58.22
2022-11-11T13:09:24.543Z,57.83
2022-11-11T13:12:18.878Z,57.83
2022-11-11T13:15:23.702Z,58.39
2022-11-11T13:18:16.144Z,58.80
2022-11-11T13:21:04.940Z,58.17
2022-11-11T13:23:50.450Z,58.32
2022-11-11T13:26:39.833Z,58.28
2022-11-11T13:30:10.215Z,58.73
2022-11-11T13:33:01.385Z,59.63
2022-11-11T13:35:52.581Z,59.04
2022-11-11T13:38:44.242Z,58.75
2022-11-11T13:41:32.843Z,58.42
2022-11-11T13:44:24.146Z,58.12
2022-11-11T13:47:13.389Z,57.87
2022-11-11T13:50:08.381Z,57.81
2022-11-11T13:53:30.238Z,58.11
2022-11-11T13:56:45.255Z,58.63
2022-11-11T13:59:42.444Z,59.19
2022-11-11T14:02:35.513Z,59.10
2022-11-11T14:05:23.568Z,58.75
2022-11-11T14:08:10.309Z,58.99
2022-11-11T14:10:58.808Z,58.82
2022-11-11T14:13:44.434Z,58.48
2022-11-11T14:16:35.923Z,58.93
2022-11-11T14:19:21.412Z,59.61
2022-11-11T14:22:37.053Z,59.66
2022-11-11T14:25:25.890Z,60.22
2022-11-11T14:28:30.197Z,60.41
2022-11-11T14:31:18.336Z,60.71
2022-11-11T14:34:33.119Z,61.18
2022-11-11T14:37:24.629Z,60.23
2022-11-11T14:40:23.454Z,62.00
2022-11-11T14:43:41.010Z,62.54
2022-11-11T14:46:26.204Z,62.89
2022-11-11T14:49:11.485Z,62.22
2022-11-11T14:52:01.741Z,63.30
2022-11-11T14:54:53.647Z,61.09
2022-11-11T14:57:49.563Z,62.29
2022-11-11T15:00:50.872Z,62.87
2022-11-11T15:03:39.978Z,62.99
2022-11-11T15:06:31.116Z,63.42
2022-11-11T15:09:50.044Z,63.57
2022-11-11T15:12:57.421Z,63.64
2022-11-11T15:15:53.413Z,63.99
2022-11-11T15:19:06.898Z,63.57
2022-11-11T15:22:03.466Z,63.77
2022-11-11T15:25:07.415Z,63.96
2022-11-11T15:28:08.628Z,64.11
2022-11-11T15:31:06.431Z,64.13
2022-11-11T15:34:38.127Z,64.02
2022-11-11T15:37:26.158Z,64.24
2022-11-11T15:40:20.395Z,64.25
2022-11-11T15:43:06.250Z,64.47
2022-11-11T15:46:00.484Z,64.54
2022-11-11T15:48:46.511Z,64.50
2022-11-11T15:51:35.870Z,64.62
2022-11-11T15:54:26.509Z,64.53
2022-11-11T15:57:32.271Z,64.58
2022-11-11T16:00:23.785Z,64.69
2022-11-11T16:03:21.201Z,64.87
2022-11-11T16:06:11.742Z,64.78
2022-11-11T16:09:00.412Z,64.91
2022-11-11T16:11:45.922Z,65.09
2022-11-11T16:14:37.509Z,65.03
2022-11-11T16:17:26.060Z,65.33
2022-11-11T16:20:16.381Z,65.16
2022-11-11T16:23:03.033Z,65.24
2022-11-11T16:25:53.421Z,65.10
2022-11-11T16:28:43.160Z,65.19
2022-11-11T16:31:38.265Z,65.24
2022-11-11T16:34:29.559Z,65.46
2022-11-11T16:37:17.430Z,65.43
2022-11-11T16:40:30.987Z,65.39
2022-11-11T16:43:21.876Z,65.44
2022-11-11T16:46:10.147Z,65.58
2022-11-11T16:48:55.579Z,65.74
2022-11-11T16:51:44.320Z,65.97
2022-11-11T16:54:32.606Z,65.88
2022-11-11T16:57:26.666Z,65.67
2022-11-11T17:00:18.457Z,66.07
2022-11-11T17:03:25.982Z,65.89
2022-11-11T17:06:12.006Z,65.97
2022-11-11T17:08:57.446Z,66.25
2022-11-11T17:11:45.854Z,66.11
2022-11-11T17:14:34.264Z,66.43
2022-11-11T17:17:21.672Z,66.38
2022-11-11T17:20:16.552Z,66.82
2022-11-11T17:23:06.463Z,66.84
2022-11-11T17:25:56.836Z,66.73
2022-11-11T17:28:42.207Z,67.62
2022-11-11T17:31:27.505Z,67.62
2022-11-11T17:34:12.891Z,67.94
2022-11-11T17:36:58.570Z,67.86
2022-11-11T17:39:45.251Z,67.60
2022-11-11T17:42:30.965Z,67.77
2022-11-11T17:45:16.833Z,67.76
2022-11-11T17:48:03.334Z,67.98
2022-11-11T17:50:48.600Z,67.89
2022-11-11T17:53:37.019Z,68.08
2022-11-11T17:56:22.406Z,67.94
2022-11-11T17:59:08.578Z,67.91
2022-11-11T18:01:54.307Z,67.83
2022-11-11T18:04:40.635Z,67.93
2022-11-11T18:07:25.969Z,67.97
2022-11-11T18:10:12.559Z,67.70
2022-11-11T18:12:58.504Z,68.27
2022-11-11T18:15:44.161Z,67.90
2022-11-11T18:18:30.655Z,67.86
2022-11-11T18:21:16.423Z,68.04
2022-11-11T18:24:04.329Z,67.63
2022-11-11T18:26:49.774Z,67.59
2022-11-11T18:29:36.030Z,67.73
2022-11-11T18:32:21.805Z,67.73
2022-11-11T18:35:08.442Z,67.79
2022-11-11T18:37:54.235Z,67.71
2022-11-11T18:40:40.005Z,67.70
2022-11-11T18:43:25.868Z,67.84
2022-11-11T18:46:14.095Z,67.68
2022-11-11T18:49:01.701Z,67.54
2022-11-11T18:51:47.311Z,67.69
2022-11-11T18:54:33.729Z,67.43
2022-11-11T18:57:19.413Z,68.09
2022-11-11T19:00:07.848Z,68.04
2022-11-11T19:02:53.276Z,67.94
2022-11-11T19:05:38.649Z,68.23
2022-11-11T19:08:24.189Z,68.14
2022-11-11T19:11:09.908Z,67.71
2022-11-11T19:13:56.107Z,67.92
2022-11-11T19:16:42.216Z,68.08
2022-11-11T19:19:27.372Z,67.86
2022-11-11T19:22:12.542Z,68.18
2022-11-11T19:24:58.000Z,68.49
2022-11-11T19:27:43.285Z,67.90
2022-11-11T19:30:28.823Z,68.00
2022-11-11T19:33:15.056Z,67.79
2022-11-11T19:36:02.482Z,67.83
2022-11-11T19:38:48.652Z,68.18
2022-11-11T19:41:34.210Z,67.97
2022-11-11T19:44:19.502Z,67.97
2022-11-11T19:47:05.440Z,67.95
2022-11-11T19:49:50.776Z,68.06
2022-11-11T19:52:36.221Z,67.86
2022-11-11T19:55:21.470Z,68.07
2022-11-11T19:58:06.808Z,68.06
2022-11-11T20:00:52.615Z,68.32
2022-11-11T20:03:38.469Z,68.11
2022-11-11T20:06:28.926Z,67.80
2022-11-11T20:09:15.178Z,67.90
2022-11-11T20:12:00.606Z,68.18
2022-11-11T20:14:46.147Z,68.06
2022-11-11T20:17:31.388Z,67.92
2022-11-11T20:20:16.932Z,68.03
2022-11-11T20:23:06.492Z,67.81
2022-11-11T20:25:53.016Z,67.90
2022-11-11T20:28:39.140Z,67.91
2022-11-11T20:31:25.412Z,67.87
2022-11-11T20:34:10.913Z,68.02
2022-11-11T20:36:56.458Z,68.09
2022-11-11T20:39:41.669Z,68.03
2022-11-11T20:42:27.012Z,68.14
2022-11-11T20:45:12.800Z,68.26
2022-11-11T20:47:58.545Z,68.17
2022-11-11T20:50:44.178Z,67.99
2022-11-11T20:53:30.336Z,68.01
2022-11-11T20:56:22.215Z,68.29
2022-11-11T20:59:09.354Z,68.11
2022-11-11T21:01:55.451Z,68.28
2022-11-11T21:04:40.663Z,68.32
2022-11-11T21:07:26.166Z,68.56
2022-11-11T21:10:11.619Z,68.51
2022-11-11T21:12:56.911Z,68.17
2022-11-11T21:15:42.309Z,68.02
2022-11-11T21:18:27.990Z,68.23
2022-11-11T21:21:22.523Z,68.36
2022-11-11T21:24:08.657Z,68.43
2022-11-11T21:26:54.245Z,68.45
2022-11-11T21:29:39.690Z,68.47
2022-11-11T21:32:25.822Z,68.42
2022-11-11T21:35:11.368Z,68.57
2022-11-11T21:37:56.774Z,68.70
2022-11-11T21:40:42.078Z,68.64
2022-11-11T21:43:27.179Z,68.53
2022-11-11T21:46:18.271Z,68.83
2022-11-11T21:49:04.637Z,68.82
2022-11-11T21:51:50.946Z,68.91
2022-11-11T21:54:36.371Z,68.98
2022-11-11T21:57:21.640Z,68.92
2022-11-11T22:00:07.514Z,68.84
2022-11-11T22:02:53.024Z,68.69
2022-11-11T22:05:38.538Z,68.93
2022-11-11T22:08:24.119Z,68.85
2022-11-11T22:11:15.480Z,68.74
2022-11-11T22:14:02.278Z,68.91
2022-11-11T22:16:47.925Z,68.88
2022-11-11T22:19:33.488Z,69.18
2022-11-11T22:22:18.737Z,68.54
2022-11-11T22:25:04.165Z,68.89
2022-11-11T22:27:49.386Z,68.86
2022-11-11T22:30:34.788Z,68.74
2022-11-11T22:33:20.345Z,68.68
2022-11-11T22:36:12.921Z,68.79
2022-11-11T22:38:59.670Z,68.73
2022-11-11T22:41:45.004Z,68.87
2022-11-11T22:44:30.908Z,68.59
2022-11-11T22:47:16.186Z,68.83
2022-11-11T22:50:01.563Z,69.05
2022-11-11T22:52:50.297Z,68.93
2022-11-11T22:55:35.379Z,68.79
2022-11-11T22:58:20.794Z,68.97
2022-11-11T23:01:09.308Z,68.87
2022-11-11T23:03:55.919Z,68.96
2022-11-11T23:06:42.434Z,68.72
2022-11-11T23:09:28.234Z,68.83
2022-11-11T23:12:13.400Z,69.13
2022-11-11T23:14:58.527Z,68.82
2022-11-11T23:17:44.080Z,68.57
2022-11-11T23:20:29.661Z,68.70
2022-11-11T23:23:15.289Z,68.53
2022-11-11T23:26:06.015Z,68.92
2022-11-11T23:28:51.714Z,68.85
2022-11-11T23:31:37.119Z,68.82
2022-11-11T23:34:22.488Z,68.90
2022-11-11T23:37:08.282Z,69.42
2022-11-11T23:39:53.602Z,69.17
2022-11-11T23:42:38.904Z,69.11
2022-11-11T23:45:26.945Z,69.32
2022-11-11T23:48:12.202Z,69.21
2022-11-11T23:50:57.774Z,69.06
2022-11-11T23:53:43.389Z,68.93
2022-11-11T23:56:28.576Z,68.97
2022-11-11T23:59:13.859Z,68.72
